createdAt,value
2018-11-27T00:00:11.828Z,3.70
2018-11-27T00:02:39.968Z,3.60
2018-11-27T00:05:09.213Z,3.60
2018-11-27T00:07:37.533Z,3.60
2018-11-27T00:10:08.129Z,3.60
2018-11-27T00:12:36.380Z,3.60
2018-11-27T00:15:12.471Z,3.60
2018-11-27T00:17:40.661Z,3.60
2018-11-27T00:20:09.959Z,3.60
2018-11-27T00:22:38.416Z,3.50
2018-11-27T00:25:11.670Z,3.60
2018-11-27T00:27:39.808Z,3.50
2018-11-27T00:30:11.254Z,3.60
2018-11-27T00:32:39.400Z,3.60
2018-11-27T00:35:11.742Z,3.60
2018-11-27T00:37:39.880Z,3.60
2018-11-27T00:40:14.045Z,3.60
2018-11-27T00:42:42.228Z,3.50
2018-11-27T00:45:11.369Z,3.50
2018-11-27T00:47:39.620Z,3.50
2018-11-27T00:50:10.487Z,3.50
2018-11-27T00:52:38.807Z,3.50
2018-11-27T00:55:08.265Z,3.50
2018-11-27T00:57:36.387Z,3.50
2018-11-27T01:00:07.160Z,3.50
2018-11-27T01:02:35.302Z,3.50
2018-11-27T01:05:03.447Z,3.40
2018-11-27T01:07:31.884Z,3.40
2018-11-27T01:10:00.009Z,3.40
2018-11-27T01:12:28.140Z,3.40
2018-11-27T01:14:56.252Z,3.40
2018-11-27T01:17:24.519Z,3.40
2018-11-27T01:19:52.680Z,3.50
2018-11-27T01:22:20.823Z,3.40
2018-11-27T01:24:48.955Z,3.50
2018-11-27T01:27:17.098Z,3.50
2018-11-27T01:29:45.248Z,3.40
2018-11-27T01:32:13.395Z,3.40
2018-11-27T01:34:41.533Z,3.40
2018-11-27T01:37:09.685Z,3.40
2018-11-27T01:39:37.825Z,3.40
2018-11-27T01:42:05.958Z,3.40
2018-11-27T01:44:34.084Z,3.40
2018-11-27T01:47:02.212Z,3.40
2018-11-27T01:49:30.352Z,3.40
2018-11-27T01:51:58.466Z,3.40
2018-11-27T01:54:26.626Z,3.40
2018-11-27T01:56:54.756Z,3.40
2018-11-27T01:59:22.885Z,3.40
2018-11-27T02:01:51.005Z,3.40
2018-11-27T02:04:19.145Z,3.40
2018-11-27T02:06:47.269Z,3.40
2018-11-27T02:09:15.400Z,3.40
2018-11-27T02:11:43.508Z,3.40
2018-11-27T02:14:11.733Z,3.40
2018-11-27T02:16:39.858Z,3.40
2018-11-27T02:19:07.981Z,3.40
2018-11-27T02:21:36.092Z,3.40
2018-11-27T02:24:04.333Z,3.40
2018-11-27T02:26:32.461Z,3.40
2018-11-27T02:29:00.615Z,3.40
2018-11-27T02:31:28.746Z,3.40
2018-11-27T02:33:56.873Z,3.40
2018-11-27T02:36:24.991Z,3.40
2018-11-27T02:38:53.121Z,3.40
2018-11-27T02:41:21.241Z,3.40
2018-11-27T02:43:49.364Z,3.40
2018-11-27T02:46:17.492Z,3.40
2018-11-27T02:48:45.615Z,3.40
2018-11-27T02:51:13.744Z,3.40
2018-11-27T02:53:41.968Z,3.40
2018-11-27T02:56:10.101Z,3.40
2018-11-27T02:58:38.220Z,3.40
2018-11-27T03:01:06.361Z,3.40
2018-11-27T03:03:34.514Z,3.40
2018-11-27T03:06:02.628Z,3.40
2018-11-27T03:08:30.761Z,3.40
2018-11-27T03:10:58.882Z,3.40
2018-11-27T03:13:27.018Z,3.40
2018-11-27T03:15:55.135Z,3.40
2018-11-27T03:18:23.368Z,3.40
2018-11-27T03:20:51.494Z,3.40
2018-11-27T03:23:19.622Z,3.40
2018-11-27T03:25:47.760Z,3.40
2018-11-27T03:28:15.868Z,3.40
2018-11-27T03:30:44.009Z,3.40
2018-11-27T03:33:12.124Z,3.40
2018-11-27T03:35:40.249Z,3.40
2018-11-27T03:38:08.374Z,3.40
2018-11-27T03:40:36.492Z,3.40
2018-11-27T03:43:04.634Z,3.40
2018-11-27T03:45:32.776Z,3.40
2018-11-27T03:48:00.912Z,3.40
2018-11-27T03:50:30.292Z,3.40
2018-11-27T03:52:58.442Z,3.40
2018-11-27T03:55:26.581Z,3.40
2018-11-27T03:57:54.839Z,3.30
2018-11-27T04:00:27.289Z,3.30
2018-11-27T04:02:56.984Z,3.40
2018-11-27T04:05:25.892Z,3.40
2018-11-27T04:07:54.071Z,3.30
2018-11-27T04:10:22.227Z,3.30
2018-11-27T04:12:50.531Z,3.30
2018-11-27T04:15:18.702Z,3.30
2018-11-27T04:17:46.836Z,3.40
2018-11-27T04:20:14.993Z,3.40
2018-11-27T04:22:43.652Z,3.40
2018-11-27T04:25:12.744Z,3.40
2018-11-27T04:27:40.900Z,3.40
2018-11-27T04:30:11.500Z,3.40
2018-11-27T04:32:39.711Z,3.40
2018-11-27T04:35:08.585Z,3.40
2018-11-27T04:37:36.724Z,3.40
2018-11-27T04:40:06.354Z,3.40
2018-11-27T04:42:34.466Z,3.40
2018-11-27T04:45:02.598Z,3.40
2018-11-27T04:47:30.724Z,3.40
2018-11-27T04:49:58.848Z,3.40
2018-11-27T04:52:26.981Z,3.40
2018-11-27T04:54:55.107Z,3.40
2018-11-27T04:57:23.249Z,3.40
2018-11-27T04:59:51.361Z,3.40
2018-11-27T05:02:19.504Z,3.40
2018-11-27T05:04:47.624Z,3.50
2018-11-27T05:07:15.774Z,3.40
2018-11-27T05:09:43.992Z,3.40
2018-11-27T05:12:12.123Z,3.50
2018-11-27T05:14:40.248Z,3.40
2018-11-27T05:17:08.389Z,3.40
2018-11-27T05:19:36.532Z,3.40
2018-11-27T05:22:04.685Z,3.40
2018-11-27T05:24:32.816Z,3.40
2018-11-27T05:27:01.844Z,3.40
2018-11-27T05:29:29.964Z,3.40
2018-11-27T05:31:58.088Z,3.50
2018-11-27T05:34:26.248Z,3.50
2018-11-27T05:36:54.396Z,3.50
2018-11-27T05:39:22.564Z,3.50
2018-11-27T05:41:50.726Z,3.40
2018-11-27T05:44:18.866Z,3.50
2018-11-27T05:46:47.007Z,3.50
2018-11-27T05:49:15.144Z,3.50
2018-11-27T05:51:43.278Z,3.40
2018-11-27T05:54:11.409Z,3.50
2018-11-27T05:56:39.938Z,3.50
2018-11-27T05:59:08.172Z,3.50
2018-11-27T06:01:36.436Z,3.50
2018-11-27T06:04:04.629Z,3.50
2018-11-27T06:06:32.856Z,3.50
2018-11-27T06:09:00.980Z,3.50
2018-11-27T06:11:29.221Z,3.50
2018-11-27T06:13:57.347Z,3.50
2018-11-27T06:16:25.489Z,3.50
2018-11-27T06:18:53.609Z,3.50
2018-11-27T06:21:21.746Z,3.50
2018-11-27T06:23:49.872Z,3.50
2018-11-27T06:26:17.993Z,3.60
2018-11-27T06:28:46.116Z,3.60
2018-11-27T06:31:14.244Z,3.60
2018-11-27T06:33:42.516Z,3.60
2018-11-27T06:36:10.644Z,3.60
2018-11-27T06:38:38.779Z,3.60
2018-11-27T06:41:06.992Z,3.60
2018-11-27T06:43:35.288Z,3.60
2018-11-27T06:46:03.595Z,3.60
2018-11-27T06:48:32.260Z,3.60
2018-11-27T06:51:00.446Z,3.60
2018-11-27T06:53:28.571Z,3.60
2018-11-27T06:55:56.717Z,3.60
2018-11-27T06:58:25.063Z,3.60
2018-11-27T07:00:53.312Z,3.60
2018-11-27T07:03:21.556Z,3.70
2018-11-27T07:05:49.683Z,3.70
2018-11-27T07:08:17.956Z,3.70
2018-11-27T07:10:46.251Z,3.70
2018-11-27T07:13:18.049Z,3.70
2018-11-27T07:15:46.839Z,3.70
2018-11-27T07:18:15.015Z,3.70
2018-11-27T07:20:43.136Z,3.70
2018-11-27T07:23:11.272Z,3.70
2018-11-27T07:25:39.392Z,3.70
2018-11-27T07:28:07.524Z,3.80
2018-11-27T07:30:36.608Z,3.80
2018-11-27T07:33:05.025Z,3.80
2018-11-27T07:35:33.195Z,3.80
2018-11-27T07:38:01.335Z,3.80
2018-11-27T07:40:29.546Z,3.90
2018-11-27T07:43:00.965Z,3.90
2018-11-27T07:45:29.136Z,3.90
2018-11-27T07:47:57.353Z,3.90
2018-11-27T07:50:25.488Z,3.90
2018-11-27T07:52:53.681Z,3.90
2018-11-27T07:55:22.918Z,4.00
2018-11-27T07:57:52.207Z,4.00
2018-11-27T08:00:22.913Z,4.00
2018-11-27T08:02:53.040Z,4.00
2018-11-27T08:05:22.485Z,4.00
2018-11-27T08:07:52.807Z,4.00
2018-11-27T08:10:22.008Z,4.00
2018-11-27T08:12:50.159Z,4.00
2018-11-27T08:15:20.333Z,4.00
2018-11-27T08:17:48.551Z,4.00
2018-11-27T08:20:18.060Z,4.00
2018-11-27T08:22:46.186Z,4.00
2018-11-27T08:25:14.839Z,4.00
2018-11-27T08:27:42.977Z,4.10
2018-11-27T08:30:14.016Z,4.10
2018-11-27T08:32:42.251Z,4.10
2018-11-27T08:35:11.812Z,4.20
2018-11-27T08:37:40.096Z,4.20
2018-11-27T08:40:10.619Z,4.20
2018-11-27T08:42:38.727Z,4.30
2018-11-27T08:45:10.918Z,4.30
2018-11-27T08:47:39.045Z,4.40
2018-11-27T08:50:12.224Z,4.40
2018-11-27T08:52:40.585Z,4.40
2018-11-27T08:55:10.397Z,4.40
2018-11-27T08:57:38.627Z,4.40
2018-11-27T09:00:22.724Z,4.50
2018-11-27T09:02:51.250Z,4.50
2018-11-27T09:05:19.513Z,4.50
2018-11-27T09:07:47.992Z,4.60
2018-11-27T09:10:17.449Z,4.60
2018-11-27T09:12:45.569Z,4.60
2018-11-27T09:15:14.846Z,4.60
2018-11-27T09:17:44.907Z,4.60
2018-11-27T09:20:13.376Z,4.60
2018-11-27T09:22:41.651Z,4.60
2018-11-27T09:25:11.500Z,4.60
2018-11-27T09:27:39.872Z,4.60
2018-11-27T09:30:12.466Z,4.60
2018-11-27T09:32:40.599Z,4.60
2018-11-27T09:35:09.331Z,4.60
2018-11-27T09:37:37.972Z,4.60
2018-11-27T09:40:10.999Z,4.60
2018-11-27T09:42:39.153Z,4.60
2018-11-27T09:45:09.472Z,4.60
2018-11-27T09:47:37.952Z,4.60
2018-11-27T09:50:08.987Z,4.60
2018-11-27T09:52:37.329Z,4.60
2018-11-27T09:55:08.150Z,4.60
2018-11-27T09:57:36.292Z,4.60
2018-11-27T10:00:06.282Z,4.60
2018-11-27T10:02:34.420Z,4.60
2018-11-27T10:05:02.551Z,4.70
2018-11-27T10:07:30.688Z,4.70
2018-11-27T10:09:58.804Z,4.70
2018-11-27T10:12:26.946Z,4.80
2018-11-27T10:14:55.063Z,4.90
2018-11-27T10:17:23.227Z,4.90
2018-11-27T10:19:51.355Z,5.00
2018-11-27T10:22:19.476Z,5.00
2018-11-27T10:24:47.584Z,5.00
2018-11-27T10:27:15.728Z,5.10
2018-11-27T10:29:43.851Z,5.10
2018-11-27T10:32:12.003Z,5.10
2018-11-27T10:34:43.490Z,5.20
2018-11-27T10:37:12.231Z,5.20
2018-11-27T10:39:40.352Z,5.20
2018-11-27T10:42:08.478Z,5.30
2018-11-27T10:44:36.617Z,5.30
2018-11-27T10:47:04.755Z,5.40
2018-11-27T10:49:32.859Z,5.40
2018-11-27T10:52:00.976Z,5.40
2018-11-27T10:54:29.108Z,5.40
2018-11-27T10:56:57.232Z,5.40
2018-11-27T10:59:25.354Z,5.40
2018-11-27T11:01:55.648Z,5.40
2018-11-27T11:04:23.793Z,5.40
2018-11-27T11:06:51.919Z,5.40
2018-11-27T11:09:20.047Z,5.50
2018-11-27T11:11:48.172Z,5.50
2018-11-27T11:14:16.304Z,5.50
2018-11-27T11:16:44.444Z,5.50
2018-11-27T11:19:12.576Z,5.50
2018-11-27T11:21:40.724Z,5.40
2018-11-27T11:24:08.929Z,5.50
2018-11-27T11:26:37.063Z,5.50
2018-11-27T11:29:05.468Z,5.50
2018-11-27T11:31:33.613Z,5.50
2018-11-27T11:34:01.768Z,5.50
2018-11-27T11:36:29.949Z,5.60
2018-11-27T11:38:58.090Z,5.60
2018-11-27T11:41:31.149Z,5.60
2018-11-27T11:43:54.553Z,5.60
2018-11-27T11:46:22.681Z,5.60
2018-11-27T11:48:50.844Z,5.70
2018-11-27T11:51:18.992Z,5.70
2018-11-27T11:53:47.127Z,5.70
2018-11-27T11:56:15.261Z,5.80
2018-11-27T11:58:43.467Z,5.80
2018-11-27T12:01:11.612Z,5.90
2018-11-27T12:03:39.756Z,5.90
2018-11-27T12:06:07.891Z,5.90
2018-11-27T12:08:36.055Z,5.90
2018-11-27T12:11:04.497Z,5.90
2018-11-27T12:13:32.620Z,5.90
2018-11-27T12:16:00.736Z,5.80
2018-11-27T12:18:28.859Z,5.80
2018-11-27T12:20:56.985Z,5.90
2018-11-27T12:23:25.107Z,5.80
2018-11-27T12:25:53.303Z,5.80
2018-11-27T12:28:21.443Z,5.80
2018-11-27T12:30:49.627Z,5.70
2018-11-27T12:33:17.766Z,5.70
2018-11-27T12:35:45.899Z,5.70
2018-11-27T12:38:14.047Z,5.60
2018-11-27T12:40:42.175Z,5.60
2018-11-27T12:43:10.311Z,5.60
2018-11-27T12:45:38.436Z,5.50
2018-11-27T12:48:06.620Z,5.50
2018-11-27T12:50:38.717Z,5.50
2018-11-27T12:53:08.355Z,5.50
2018-11-27T12:55:38.157Z,5.50
2018-11-27T12:58:07.064Z,5.50
2018-11-27T13:00:35.430Z,5.60
2018-11-27T13:03:03.561Z,5.70
2018-11-27T13:05:37.216Z,5.80
2018-11-27T13:08:10.428Z,5.90
2018-11-27T13:10:38.566Z,5.90
2018-11-27T13:13:06.707Z,5.90
2018-11-27T13:15:36.160Z,5.90
2018-11-27T13:18:04.681Z,5.80
2018-11-27T13:20:32.800Z,5.80
2018-11-27T13:23:00.935Z,5.70
2018-11-27T13:25:29.108Z,5.60
2018-11-27T13:27:57.299Z,5.50
2018-11-27T13:30:29.024Z,5.40
2018-11-27T13:32:59.851Z,5.30
2018-11-27T13:35:27.980Z,5.20
2018-11-27T13:37:56.124Z,5.20
2018-11-27T13:40:24.250Z,5.10
2018-11-27T13:42:52.398Z,5.10
2018-11-27T13:45:20.536Z,5.00
2018-11-27T13:47:48.695Z,5.00
2018-11-27T13:50:17.228Z,5.00
2018-11-27T13:52:45.361Z,5.00
2018-11-27T13:55:15.993Z,4.90
2018-11-27T13:57:44.155Z,4.90
2018-11-27T14:00:14.570Z,4.90
2018-11-27T14:02:49.041Z,4.90
2018-11-27T14:05:18.382Z,4.90
2018-11-27T14:07:46.556Z,4.90
2018-11-27T14:10:14.736Z,4.90
2018-11-27T14:12:42.876Z,4.90
2018-11-27T14:15:14.865Z,4.90
2018-11-27T14:17:43.039Z,4.90
2018-11-27T14:20:11.254Z,4.90
2018-11-27T14:22:39.413Z,4.90
2018-11-27T14:25:09.296Z,4.90
2018-11-27T14:27:37.459Z,4.90
2018-11-27T14:30:10.544Z,4.80
2018-11-27T14:32:38.693Z,4.80
2018-11-27T14:35:06.816Z,4.80
2018-11-27T14:37:34.960Z,4.70
2018-11-27T14:40:03.555Z,4.70
2018-11-27T14:42:31.729Z,4.60
2018-11-27T14:44:59.868Z,4.50
2018-11-27T14:47:27.992Z,4.50
2018-11-27T14:49:56.136Z,4.50
2018-11-27T14:52:24.317Z,4.40
2018-11-27T14:54:52.508Z,4.30
2018-11-27T14:57:20.629Z,4.20
2018-11-27T14:59:48.790Z,4.10
2018-11-27T15:02:16.905Z,4.10
2018-11-27T15:04:45.042Z,4.10
2018-11-27T15:07:13.301Z,4.10
2018-11-27T15:09:41.444Z,4.10
2018-11-27T15:12:09.575Z,4.10
2018-11-27T15:14:37.704Z,4.10
2018-11-27T15:17:05.875Z,4.10
2018-11-27T15:19:34.036Z,4.00
2018-11-27T15:22:02.173Z,4.00
2018-11-27T15:24:30.321Z,4.00
2018-11-27T15:26:58.435Z,4.00
2018-11-27T15:29:26.578Z,4.00
2018-11-27T15:31:54.687Z,4.00
2018-11-27T15:34:22.812Z,4.00
2018-11-27T15:36:50.931Z,4.10
2018-11-27T15:39:19.101Z,4.10
2018-11-27T15:41:47.262Z,4.00
2018-11-27T15:44:15.468Z,4.00
2018-11-27T15:46:43.589Z,3.90
2018-11-27T15:49:11.745Z,3.90
2018-11-27T15:51:39.885Z,3.90
2018-11-27T15:54:08.115Z,3.90
2018-11-27T15:56:36.278Z,4.00
2018-11-27T15:59:04.408Z,3.90
2018-11-27T16:01:33.389Z,3.90
2018-11-27T16:04:01.519Z,3.90
2018-11-27T16:06:29.692Z,3.90
2018-11-27T16:08:57.822Z,3.90
2018-11-27T16:11:26.923Z,3.80
2018-11-27T16:13:55.766Z,3.80
2018-11-27T16:16:23.157Z,3.80
2018-11-27T16:18:51.433Z,3.80
2018-11-27T16:21:19.567Z,3.80
2018-11-27T16:23:47.704Z,3.70
2018-11-27T16:26:15.834Z,3.70
2018-11-27T16:28:43.971Z,3.70
2018-11-27T16:31:12.148Z,3.70
2018-11-27T16:33:40.273Z,3.70
2018-11-27T16:36:08.524Z,3.70
2018-11-27T16:38:40.112Z,3.70
2018-11-27T16:41:05.018Z,3.70
2018-11-27T16:43:33.155Z,3.70
2018-11-27T16:46:01.285Z,3.70
2018-11-27T16:48:29.405Z,3.70
2018-11-27T16:50:57.517Z,3.70
2018-11-27T16:53:25.653Z,3.70
2018-11-27T16:55:53.785Z,3.70
2018-11-27T16:58:21.916Z,3.70
2018-11-27T17:00:50.109Z,3.70
2018-11-27T17:03:18.389Z,3.70
2018-11-27T17:05:46.532Z,3.60
2018-11-27T17:08:14.657Z,3.60
2018-11-27T17:10:44.204Z,3.60
2018-11-27T17:13:14.180Z,3.60
2018-11-27T17:15:48.847Z,3.70
2018-11-27T17:18:17.012Z,3.70
2018-11-27T17:20:45.840Z,3.60
2018-11-27T17:23:16.704Z,3.60
2018-11-27T17:25:44.869Z,3.60
2018-11-27T17:28:19.711Z,3.60
2018-11-27T17:30:54.719Z,3.60
2018-11-27T17:33:27.185Z,3.60
2018-11-27T17:35:55.316Z,3.60
2018-11-27T17:38:23.431Z,3.60
2018-11-27T17:40:51.591Z,3.60
2018-11-27T17:43:19.779Z,3.60
2018-11-27T17:45:47.888Z,3.70
2018-11-27T17:48:16.029Z,3.70
2018-11-27T17:50:44.503Z,3.70
2018-11-27T17:53:12.629Z,3.70
2018-11-27T17:55:40.747Z,3.60
2018-11-27T17:58:08.898Z,3.60
2018-11-27T18:00:37.047Z,3.60
2018-11-27T18:03:07.315Z,3.60
2018-11-27T18:05:35.503Z,3.60
2018-11-27T18:08:03.713Z,3.50
2018-11-27T18:10:31.890Z,3.50
2018-11-27T18:13:00.173Z,3.50
2018-11-27T18:15:28.315Z,3.50
2018-11-27T18:17:56.519Z,3.50
2018-11-27T18:20:24.750Z,3.50
2018-11-27T18:22:52.984Z,3.50
2018-11-27T18:25:21.311Z,3.40
2018-11-27T18:27:49.913Z,3.40
2018-11-27T18:30:19.375Z,3.30
2018-11-27T18:32:47.580Z,3.30
2018-11-27T18:35:17.638Z,3.30
2018-11-27T18:37:46.020Z,3.20
2018-11-27T18:40:15.051Z,3.20
2018-11-27T18:42:43.605Z,3.30
2018-11-27T18:45:16.878Z,3.30
2018-11-27T18:47:45.131Z,3.30
2018-11-27T18:50:13.394Z,3.30
2018-11-27T18:52:42.140Z,3.30
2018-11-27T18:55:12.222Z,3.30
2018-11-27T18:57:40.884Z,3.30
2018-11-27T19:00:27.560Z,3.20
2018-11-27T19:02:55.948Z,3.20
2018-11-27T19:05:24.139Z,3.20
2018-11-27T19:07:52.357Z,3.20
2018-11-27T19:10:29.720Z,3.20
2018-11-27T19:12:57.920Z,3.20
2018-11-27T19:15:42.300Z,3.20
2018-11-27T19:18:22.815Z,3.30
2018-11-27T19:20:51.011Z,3.30
2018-11-27T19:23:20.387Z,3.30
2018-11-27T19:25:48.537Z,3.20
2018-11-27T19:28:16.720Z,3.20
2018-11-27T19:30:45.517Z,3.20
2018-11-27T19:33:13.655Z,3.20
2018-11-27T19:35:42.080Z,3.20
2018-11-27T19:38:14.555Z,3.20
2018-11-27T19:40:42.696Z,3.20
2018-11-27T19:43:10.855Z,3.20
2018-11-27T19:45:39.093Z,3.10
2018-11-27T19:48:08.329Z,3.10
2018-11-27T19:50:37.115Z,3.10
2018-11-27T19:53:11.925Z,3.00
2018-11-27T19:55:36.268Z,3.00
2018-11-27T19:58:05.652Z,2.90
2018-11-27T20:00:33.792Z,2.80
2018-11-27T20:03:01.983Z,2.80
2018-11-27T20:05:30.701Z,2.70
2018-11-27T20:07:58.884Z,2.60
2018-11-27T20:10:27.018Z,2.50
2018-11-27T20:12:55.229Z,2.50
2018-11-27T20:15:26.276Z,2.40
2018-11-27T20:17:55.032Z,2.40
2018-11-27T20:20:24.332Z,2.40
2018-11-27T20:22:53.129Z,2.40
2018-11-27T20:25:21.973Z,2.40
2018-11-27T20:27:50.300Z,2.40
2018-11-27T20:30:22.348Z,2.50
2018-11-27T20:32:55.643Z,2.50
2018-11-27T20:35:23.912Z,2.60
2018-11-27T20:37:52.932Z,2.60
2018-11-27T20:40:21.183Z,2.60
2018-11-27T20:42:49.561Z,2.60
2018-11-27T20:45:25.412Z,2.60
2018-11-27T20:48:11.336Z,2.60
2018-11-27T20:50:39.480Z,2.70
2018-11-27T20:53:07.633Z,2.70
2018-11-27T20:55:35.822Z,2.70
2018-11-27T20:58:03.981Z,2.70
2018-11-27T21:00:35.939Z,2.70
2018-11-27T21:03:04.511Z,2.80
2018-11-27T21:05:32.679Z,2.80
2018-11-27T21:08:00.909Z,2.80
2018-11-27T21:10:29.043Z,2.80
2018-11-27T21:12:57.232Z,2.80
2018-11-27T21:15:25.377Z,2.80
2018-11-27T21:17:53.595Z,2.80
2018-11-27T21:20:21.801Z,2.70
2018-11-27T21:22:49.949Z,2.60
2018-11-27T21:25:20.006Z,2.50
2018-11-27T21:27:49.827Z,2.40
2018-11-27T21:30:18.320Z,2.30
2018-11-27T21:32:46.536Z,2.10
2018-11-27T21:35:15.751Z,2.00
2018-11-27T21:37:43.917Z,2.00
2018-11-27T21:40:15.156Z,1.90
2018-11-27T21:42:43.403Z,1.90
2018-11-27T21:45:13.742Z,1.80
2018-11-27T21:47:41.953Z,1.60
2018-11-27T21:50:16.236Z,1.60
2018-11-27T21:52:44.363Z,1.50
2018-11-27T21:55:13.508Z,1.50
2018-11-27T21:57:41.669Z,1.50
2018-11-27T22:00:17.355Z,1.60
2018-11-27T22:02:45.572Z,1.60
2018-11-27T22:05:14.000Z,1.70
2018-11-27T22:07:42.328Z,1.80
2018-11-27T22:10:11.919Z,1.90
2018-11-27T22:12:41.283Z,2.00
2018-11-27T22:15:13.961Z,2.00
2018-11-27T22:17:42.101Z,2.10
2018-11-27T22:20:11.288Z,2.10
2018-11-27T22:22:39.413Z,2.10
2018-11-27T22:25:08.867Z,2.20
2018-11-27T22:27:37.091Z,2.20
2018-11-27T22:30:10.351Z,2.20
2018-11-27T22:32:38.586Z,2.20
2018-11-27T22:35:07.157Z,2.20
2018-11-27T22:37:35.308Z,2.20
2018-11-27T22:40:04.244Z,2.20
2018-11-27T22:42:32.388Z,2.20
2018-11-27T22:45:00.524Z,2.30
2018-11-27T22:47:28.693Z,2.30
2018-11-27T22:49:58.174Z,2.30
2018-11-27T22:52:26.335Z,2.30
2018-11-27T22:54:54.455Z,2.30
2018-11-27T22:57:22.603Z,2.30
2018-11-27T22:59:50.753Z,2.30
2018-11-27T23:02:18.888Z,2.30
2018-11-27T23:04:47.254Z,2.30
2018-11-27T23:07:46.338Z,2.40
2018-11-27T23:10:15.086Z,2.40
2018-11-27T23:12:43.648Z,2.40
2018-11-27T23:15:14.572Z,2.40
2018-11-27T23:17:43.039Z,2.40
2018-11-27T23:20:23.627Z,2.40
2018-11-27T23:22:53.237Z,2.40
2018-11-27T23:25:21.385Z,2.40
2018-11-27T23:27:50.018Z,2.50
2018-11-27T23:30:20.715Z,2.50
2018-11-27T23:32:49.271Z,2.50
2018-11-27T23:35:17.895Z,2.50
2018-11-27T23:37:46.294Z,2.50
2018-11-27T23:40:15.624Z,2.50
2018-11-27T23:42:44.418Z,2.50
2018-11-27T23:45:23.736Z,2.50
2018-11-27T23:47:52.155Z,2.50
2018-11-27T23:50:21.181Z,2.50
2018-11-27T23:52:49.375Z,2.50
2018-11-27T23:55:18.642Z,2.50
2018-11-27T23:57:47.128Z,2.50
